sensor_id;sensor_type;location;lat;lon;timestamp;pressure;altitude;pressure_sealevel;temperature;humidity
36980;BME280;22891;50.562;7.272;2023-02-17T00:22:45;100365.00;;;8.13;nan
36980;BME280;22891;50.562;7.272;2023-02-17T00:25:11;100366.00;;;8.14;nan
36980;BME280;22891;50.562;7.272;2023-02-17T00:27:37;100358.00;;;8.22;nan
36980;BME280;22891;50.562;7.272;2023-02-17T00:30:03;100356.00;;;8.17;nan
36980;BME280;22891;50.562;7.272;2023-02-17T00:32:29;100362.00;;;8.12;nan
36980;BME280;22891;50.562;7.272;2023-02-17T00:34:55;100350.00;;;8.14;nan
36980;BME280;22891;50.562;7.272;2023-02-17T00:37:23;100351.00;;;8.17;nan
36980;BME280;22891;50.562;7.272;2023-02-17T00:39:51;100350.00;;;8.25;nan
36980;BME280;22891;50.562;7.272;2023-02-17T00:42:18;100350.00;;;8.28;nan
36980;BME280;22891;50.562;7.272;2023-02-17T00:44:44;100342.00;;;8.15;nan
36980;BME280;22891;50.562;7.272;2023-02-17T00:47:10;100345.00;;;8.26;nan
36980;BME280;22891;50.562;7.272;2023-02-17T00:49:36;100341.00;;;8.27;nan
36980;BME280;22891;50.562;7.272;2023-02-17T00:52:03;100345.00;;;8.47;nan
36980;BME280;22891;50.562;7.272;2023-02-17T00:54:29;100348.00;;;8.57;nan
36980;BME280;22891;50.562;7.272;2023-02-17T00:56:54;100354.00;;;8.41;nan
36980;BME280;22891;50.562;7.272;2023-02-17T00:59:20;100361.00;;;8.47;nan
36980;BME280;22891;50.562;7.272;2023-02-17T01:01:46;100363.00;;;8.46;nan
36980;BME280;22891;50.562;7.272;2023-02-17T01:04:12;100358.00;;;8.63;nan
36980;BME280;22891;50.562;7.272;2023-02-17T01:06:39;100359.00;;;8.41;nan
36980;BME280;22891;50.562;7.272;2023-02-17T01:09:07;100362.00;;;8.47;nan
36980;BME280;22891;50.562;7.272;2023-02-17T01:11:34;100361.00;;;8.46;nan
36980;BME280;22891;50.562;7.272;2023-02-17T01:14:02;100367.00;;;8.56;nan
36980;BME280;22891;50.562;7.272;2023-02-17T01:16:33;100359.00;;;8.54;nan
36980;BME280;22891;50.562;7.272;2023-02-17T01:19:11;100364.00;;;8.60;nan
36980;BME280;22891;50.562;7.272;2023-02-17T01:21:37;100361.00;;;8.74;nan
36980;BME280;22891;50.562;7.272;2023-02-17T01:24:05;100368.00;;;8.78;nan
36980;BME280;22891;50.562;7.272;2023-02-17T01:26:33;100376.00;;;8.91;nan
36980;BME280;22891;50.562;7.272;2023-02-17T01:29:00;100373.00;;;8.88;nan
36980;BME280;22891;50.562;7.272;2023-02-17T01:31:27;100384.00;;;8.88;nan
36980;BME280;22891;50.562;7.272;2023-02-17T01:33:58;100378.00;;;8.82;nan
36980;BME280;22891;50.562;7.272;2023-02-17T01:36:24;100351.00;;;8.52;nan
36980;BME280;22891;50.562;7.272;2023-02-17T01:38:51;100365.00;;;8.67;nan
36980;BME280;22891;50.562;7.272;2023-02-17T01:41:20;100360.00;;;8.67;nan
36980;BME280;22891;50.562;7.272;2023-02-17T01:50:43;100356.00;;;8.71;nan
36980;BME280;22891;50.562;7.272;2023-02-17T01:53:14;100353.00;;;8.66;nan
36980;BME280;22891;50.562;7.272;2023-02-17T01:55:42;100326.00;;;8.56;nan
36980;BME280;22891;50.562;7.272;2023-02-17T01:58:10;100343.00;;;8.63;nan
36980;BME280;22891;50.562;7.272;2023-02-17T02:00:39;100331.00;;;8.78;nan
36980;BME280;22891;50.562;7.272;2023-02-17T02:03:08;100333.00;;;8.89;nan
36980;BME280;22891;50.562;7.272;2023-02-17T02:05:35;100323.00;;;8.82;nan
36980;BME280;22891;50.562;7.272;2023-02-17T02:08:02;100318.00;;;8.64;nan
36980;BME280;22891;50.562;7.272;2023-02-17T02:10:28;100318.00;;;8.64;nan
36980;BME280;22891;50.562;7.272;2023-02-17T02:12:54;100322.00;;;8.70;nan
36980;BME280;22891;50.562;7.272;2023-02-17T02:15:22;100324.00;;;8.65;nan
36980;BME280;22891;50.562;7.272;2023-02-17T02:18:31;100323.00;;;8.70;nan
36980;BME280;22891;50.562;7.272;2023-02-17T02:21:47;100307.00;;;8.67;nan
36980;BME280;22891;50.562;7.272;2023-02-17T02:24:40;100300.00;;;8.69;nan
36980;BME280;22891;50.562;7.272;2023-02-17T02:30:20;100293.00;;;8.88;nan
36980;BME280;22891;50.562;7.272;2023-02-17T02:33:50;100299.00;;;8.94;nan
36980;BME280;22891;50.562;7.272;2023-02-17T02:36:27;100298.00;;;9.15;nan
36980;BME280;22891;50.562;7.272;2023-02-17T02:39:15;100301.00;;;9.24;nan
36980;BME280;22891;50.562;7.272;2023-02-17T02:42:13;100321.00;;;9.34;nan
36980;BME280;22891;50.562;7.272;2023-02-17T02:55:08;100350.00;;;9.18;nan
36980;BME280;22891;50.562;7.272;2023-02-17T02:57:48;100350.00;;;9.18;nan
36980;BME280;22891;50.562;7.272;2023-02-17T03:01:08;100360.00;;;9.31;nan
36980;BME280;22891;50.562;7.272;2023-02-17T03:08:16;100371.00;;;9.19;nan
36980;BME280;22891;50.562;7.272;2023-02-17T03:10:48;100355.00;;;9.34;nan
36980;BME280;22891;50.562;7.272;2023-02-17T03:13:17;100374.00;;;9.26;nan
36980;BME280;22891;50.562;7.272;2023-02-17T03:15:43;100381.00;;;9.34;nan
36980;BME280;22891;50.562;7.272;2023-02-17T03:18:09;100379.00;;;9.34;nan
36980;BME280;22891;50.562;7.272;2023-02-17T03:25:30;100400.00;;;9.60;nan
36980;BME280;22891;50.562;7.272;2023-02-17T04:16:30;100495.00;;;9.92;nan
36980;BME280;22891;50.562;7.272;2023-02-17T04:35:56;100507.00;;;9.72;nan
36980;BME280;22891;50.562;7.272;2023-02-17T04:38:35;100530.00;;;9.93;nan
36980;BME280;22891;50.562;7.272;2023-02-17T04:41:03;100531.00;;;9.83;nan
36980;BME280;22891;50.562;7.272;2023-02-17T04:43:29;100521.00;;;9.74;nan
36980;BME280;22891;50.562;7.272;2023-02-17T04:45:55;100518.00;;;9.76;nan
36980;BME280;22891;50.562;7.272;2023-02-17T04:48:21;100518.00;;;9.79;nan
36980;BME280;22891;50.562;7.272;2023-02-17T04:50:47;100530.00;;;9.84;nan
36980;BME280;22891;50.562;7.272;2023-02-17T04:53:14;100532.00;;;9.84;nan
36980;BME280;22891;50.562;7.272;2023-02-17T04:55:40;100529.00;;;9.76;nan
36980;BME280;22891;50.562;7.272;2023-02-17T05:26:42;100422.00;;;9.18;nan
36980;BME280;22891;50.562;7.272;2023-02-17T05:29:07;100409.00;;;9.28;nan
36980;BME280;22891;50.562;7.272;2023-02-17T05:31:33;100413.00;;;9.28;nan
36980;BME280;22891;50.562;7.272;2023-02-17T05:34:00;100416.00;;;9.42;nan
36980;BME280;22891;50.562;7.272;2023-02-17T05:36:25;100424.00;;;9.33;nan
36980;BME280;22891;50.562;7.272;2023-02-17T05:38:51;100420.00;;;9.36;nan
36980;BME280;22891;50.562;7.272;2023-02-17T05:41:17;100433.00;;;9.46;nan
36980;BME280;22891;50.562;7.272;2023-02-17T05:43:44;100438.00;;;9.43;nan
36980;BME280;22891;50.562;7.272;2023-02-17T05:46:11;100440.00;;;9.53;nan
36980;BME280;22891;50.562;7.272;2023-02-17T05:48:38;100455.00;;;9.52;nan
36980;BME280;22891;50.562;7.272;2023-02-17T05:51:05;100472.00;;;9.52;nan
36980;BME280;22891;50.562;7.272;2023-02-17T05:55:57;100482.00;;;9.54;nan
36980;BME280;22891;50.562;7.272;2023-02-17T05:58:22;100488.00;;;9.58;nan
36980;BME280;22891;50.562;7.272;2023-02-17T06:00:48;100475.00;;;9.46;nan
36980;BME280;22891;50.562;7.272;2023-02-17T06:03:14;100502.00;;;9.57;nan
36980;BME280;22891;50.562;7.272;2023-02-17T06:05:41;100503.00;;;9.53;nan
36980;BME280;22891;50.562;7.272;2023-02-17T06:08:06;100505.00;;;9.61;nan
36980;BME280;22891;50.562;7.272;2023-02-17T06:10:33;100514.00;;;9.64;nan
36980;BME280;22891;50.562;7.272;2023-02-17T06:12:59;100518.00;;;9.68;nan
36980;BME280;22891;50.562;7.272;2023-02-17T06:15:24;100520.00;;;9.61;nan
36980;BME280;22891;50.562;7.272;2023-02-17T06:17:50;100512.00;;;9.46;nan
36980;BME280;22891;50.562;7.272;2023-02-17T06:20:16;100482.00;;;9.53;nan
36980;BME280;22891;50.562;7.272;2023-02-17T06:22:43;100502.00;;;9.47;nan
36980;BME280;22891;50.562;7.272;2023-02-17T06:25:09;100500.00;;;9.36;nan
36980;BME280;22891;50.562;7.272;2023-02-17T06:27:35;100482.00;;;9.47;nan
36980;BME280;22891;50.562;7.272;2023-02-17T06:30:01;100493.00;;;9.45;nan
36980;BME280;22891;50.562;7.272;2023-02-17T06:32:27;100482.00;;;9.34;nan
36980;BME280;22891;50.562;7.272;2023-02-17T06:34:52;100485.00;;;9.46;nan
36980;BME280;22891;50.562;7.272;2023-02-17T06:37:18;100494.00;;;9.60;nan
36980;BME280;22891;50.562;7.272;2023-02-17T06:39:44;100500.00;;;9.60;nan
36980;BME280;22891;50.562;7.272;2023-02-17T06:42:10;100511.00;;;9.62;nan
36980;BME280;22891;50.562;7.272;2023-02-17T06:44:36;100522.00;;;9.62;nan
36980;BME280;22891;50.562;7.272;2023-02-17T06:47:03;100539.00;;;9.55;nan
36980;BME280;22891;50.562;7.272;2023-02-17T06:49:29;100542.00;;;9.65;nan
36980;BME280;22891;50.562;7.272;2023-02-17T06:51:55;100533.00;;;9.78;nan
36980;BME280;22891;50.562;7.272;2023-02-17T06:54:21;100580.00;;;9.88;nan
36980;BME280;22891;50.562;7.272;2023-02-17T06:56:47;100607.00;;;9.95;nan
36980;BME280;22891;50.562;7.272;2023-02-17T06:59:13;100601.00;;;9.94;nan
36980;BME280;22891;50.562;7.272;2023-02-17T07:01:39;100599.00;;;9.98;nan
36980;BME280;22891;50.562;7.272;2023-02-17T07:04:04;100606.00;;;9.97;nan
36980;BME280;22891;50.562;7.272;2023-02-17T07:06:31;100613.00;;;9.95;nan
36980;BME280;22891;50.562;7.272;2023-02-17T07:08:57;100612.00;;;9.96;nan
36980;BME280;22891;50.562;7.272;2023-02-17T07:11:23;100628.00;;;10.01;nan
36980;BME280;22891;50.562;7.272;2023-02-17T07:13:49;100632.00;;;9.97;nan
36980;BME280;22891;50.562;7.272;2023-02-17T07:16:15;100613.00;;;9.85;nan
36980;BME280;22891;50.562;7.272;2023-02-17T07:18:41;100600.00;;;10.00;nan
36980;BME280;22891;50.562;7.272;2023-02-17T07:21:07;100615.00;;;10.02;nan
36980;BME280;22891;50.562;7.272;2023-02-17T07:23:35;100617.00;;;10.07;nan
36980;BME280;22891;50.562;7.272;2023-02-17T07:26:03;100612.00;;;10.23;nan
36980;BME280;22891;50.562;7.272;2023-02-17T07:28:30;100625.00;;;10.28;nan
36980;BME280;22891;50.562;7.272;2023-02-17T08:36:13;61241.00;;;94.71;100.00
36980;BME280;22891;50.562;7.272;2023-02-17T19:07:25;100656.00;;;11.83;nan
36980;BME280;22891;50.562;7.272;2023-02-17T19:09:51;100690.00;;;11.88;nan
36980;BME280;22891;50.562;7.272;2023-02-17T19:12:19;100710.00;;;11.97;nan
36980;BME280;22891;50.562;7.272;2023-02-17T19:14:45;100748.00;;;12.00;nan
36980;BME280;22891;50.562;7.272;2023-02-17T19:17:11;100791.00;;;11.95;nan
36980;BME280;22891;50.562;7.272;2023-02-17T19:19:38;100809.00;;;11.99;nan
36980;BME280;22891;50.562;7.272;2023-02-17T19:22:04;100833.00;;;11.93;nan
36980;BME280;22891;50.562;7.272;2023-02-17T19:24:37;100860.00;;;12.01;nan
36980;BME280;22891;50.562;7.272;2023-02-17T19:29:59;100912.00;;;11.99;nan
36980;BME280;22891;50.562;7.272;2023-02-17T19:32:25;100912.00;;;11.99;nan
36980;BME280;22891;50.562;7.272;2023-02-17T19:34:51;100912.00;;;11.99;nan
36980;BME280;22891;50.562;7.272;2023-02-17T19:37:16;100976.00;;;11.92;nan
36980;BME280;22891;50.562;7.272;2023-02-17T19:39:42;100991.00;;;12.02;nan
36980;BME280;22891;50.562;7.272;2023-02-17T19:42:08;101001.00;;;11.98;nan
36980;BME280;22891;50.562;7.272;2023-02-17T19:44:33;101012.00;;;12.01;nan
36980;BME280;22891;50.562;7.272;2023-02-17T19:46:59;101015.00;;;12.00;nan
36980;BME280;22891;50.562;7.272;2023-02-17T19:49:25;101029.00;;;12.05;nan
36980;BME280;22891;50.562;7.272;2023-02-17T19:54:18;101051.00;;;11.99;nan
36980;BME280;22891;50.562;7.272;2023-02-17T19:56:43;101055.00;;;12.05;nan
36980;BME280;22891;50.562;7.272;2023-02-17T19:59:09;101060.00;;;12.01;nan
36980;BME280;22891;50.562;7.272;2023-02-17T20:01:35;101067.00;;;11.96;nan
36980;BME280;22891;50.562;7.272;2023-02-17T20:04:03;101083.00;;;12.11;nan
36980;BME280;22891;50.562;7.272;2023-02-17T20:06:46;101086.00;;;12.05;nan
36980;BME280;22891;50.562;7.272;2023-02-17T20:09:17;101086.00;;;12.05;nan
36980;BME280;22891;50.562;7.272;2023-02-17T20:11:45;101115.00;;;12.06;nan
36980;BME280;22891;50.562;7.272;2023-02-17T20:14:11;101127.00;;;11.97;nan
36980;BME280;22891;50.562;7.272;2023-02-17T20:24:00;101152.00;;;11.84;nan
36980;BME280;22891;50.562;7.272;2023-02-17T20:26:32;101153.00;;;11.83;nan
36980;BME280;22891;50.562;7.272;2023-02-17T20:42:20;101184.00;;;11.73;nan
36980;BME280;22891;50.562;7.272;2023-02-17T20:44:46;101188.00;;;11.77;nan
36980;BME280;22891;50.562;7.272;2023-02-17T20:47:14;101190.00;;;11.83;nan
36980;BME280;22891;50.562;7.272;2023-02-17T20:49:40;101203.00;;;11.86;nan
36980;BME280;22891;50.562;7.272;2023-02-17T20:52:05;101204.00;;;11.90;nan
36980;BME280;22891;50.562;7.272;2023-02-17T20:54:31;101202.00;;;11.81;nan
36980;BME280;22891;50.562;7.272;2023-02-17T20:56:57;101192.00;;;11.80;nan
36980;BME280;22891;50.562;7.272;2023-02-17T20:59:25;101201.00;;;11.82;nan
36980;BME280;22891;50.562;7.272;2023-02-17T21:01:51;101152.00;;;11.84;nan
36980;BME280;22891;50.562;7.272;2023-02-17T22:56:54;101205.00;;;11.78;nan
36980;BME280;22891;50.562;7.272;2023-02-17T22:59:20;101205.00;;;11.78;nan
36980;BME280;22891;50.562;7.272;2023-02-17T23:01:46;101043.00;;;10.87;nan
36980;BME280;22891;50.562;7.272;2023-02-17T23:04:12;101050.00;;;11.01;nan
36980;BME280;22891;50.562;7.272;2023-02-17T23:06:38;101066.00;;;10.98;nan
36980;BME280;22891;50.562;7.272;2023-02-17T23:11:33;101094.00;;;11.08;nan
36980;BME280;22891;50.562;7.272;2023-02-17T23:14:17;101087.00;;;11.12;nan
36980;BME280;22891;50.562;7.272;2023-02-17T23:16:44;101088.00;;;11.07;nan
36980;BME280;22891;50.562;7.272;2023-02-17T23:19:16;101099.00;;;11.14;nan
36980;BME280;22891;50.562;7.272;2023-02-17T23:21:43;101099.00;;;11.14;nan
36980;BME280;22891;50.562;7.272;2023-02-17T23:24:09;101097.00;;;11.00;nan
36980;BME280;22891;50.562;7.272;2023-02-17T23:26:35;101105.00;;;11.02;nan
36980;BME280;22891;50.562;7.272;2023-02-17T23:29:00;101094.00;;;10.99;nan
36980;BME280;22891;50.562;7.272;2023-02-17T23:31:27;101093.00;;;10.96;nan
36980;BME280;22891;50.562;7.272;2023-02-17T23:33:52;101108.00;;;10.98;nan
